sensor_id;sensor_type;location;lat;lon;timestamp;P1;durP1;ratioP1;P2;durP2;ratioP2
49556;SDS011;35462;45.048;7.666;2023-03-02T00:00:02;7.63;;;5.57;;
49556;SDS011;35462;45.048;7.666;2023-03-02T00:15:25;9.40;;;5.80;;
49556;SDS011;35462;45.048;7.666;2023-03-02T00:30:41;9.45;;;6.30;;
49556;SDS011;35462;45.048;7.666;2023-03-02T00:45:57;9.75;;;7.15;;
49556;SDS011;35462;45.048;7.666;2023-03-02T01:01:13;8.52;;;6.10;;
49556;SDS011;35462;45.048;7.666;2023-03-02T01:16:33;8.18;;;6.22;;
49556;SDS011;35462;45.048;7.666;2023-03-02T01:31:49;9.98;;;6.95;;
49556;SDS011;35462;45.048;7.666;2023-03-02T01:47:13;10.93;;;7.53;;
49556;SDS011;35462;45.048;7.666;2023-03-02T02:02:46;7.60;;;4.72;;
49556;SDS011;35462;45.048;7.666;2023-03-02T02:18:03;4.22;;;3.33;;
49556;SDS011;35462;45.048;7.666;2023-03-02T02:33:19;4.90;;;4.05;;
49556;SDS011;35462;45.048;7.666;2023-03-02T02:48:38;3.30;;;2.67;;
49556;SDS011;35462;45.048;7.666;2023-03-02T03:03:56;4.30;;;3.65;;
49556;SDS011;35462;45.048;7.666;2023-03-02T03:19:17;3.42;;;2.63;;
49556;SDS011;35462;45.048;7.666;2023-03-02T03:34:40;5.05;;;2.92;;
49556;SDS011;35462;45.048;7.666;2023-03-02T03:50:01;3.72;;;2.97;;
49556;SDS011;35462;45.048;7.666;2023-03-02T04:05:18;3.90;;;2.92;;
49556;SDS011;35462;45.048;7.666;2023-03-02T04:20:38;3.47;;;2.40;;
49556;SDS011;35462;45.048;7.666;2023-03-02T04:35:54;3.00;;;2.70;;
49556;SDS011;35462;45.048;7.666;2023-03-02T05:06:45;5.25;;;3.40;;
49556;SDS011;35462;45.048;7.666;2023-03-02T05:22:01;4.32;;;2.88;;
49556;SDS011;35462;45.048;7.666;2023-03-02T05:37:16;6.63;;;2.55;;
49556;SDS011;35462;45.048;7.666;2023-03-02T05:52:32;3.33;;;2.28;;
49556;SDS011;35462;45.048;7.666;2023-03-02T06:07:48;2.55;;;2.28;;
49556;SDS011;35462;45.048;7.666;2023-03-02T06:23:04;2.88;;;2.10;;
49556;SDS011;35462;45.048;7.666;2023-03-02T06:38:19;4.72;;;2.17;;
49556;SDS011;35462;45.048;7.666;2023-03-02T06:53:35;3.55;;;2.40;;
49556;SDS011;35462;45.048;7.666;2023-03-02T07:08:51;4.53;;;3.40;;
49556;SDS011;35462;45.048;7.666;2023-03-02T07:24:07;4.70;;;3.50;;
49556;SDS011;35462;45.048;7.666;2023-03-02T07:39:23;12.48;;;4.63;;
49556;SDS011;35462;45.048;7.666;2023-03-02T07:54:39;6.40;;;4.47;;
49556;SDS011;35462;45.048;7.666;2023-03-02T08:09:55;7.53;;;5.68;;
49556;SDS011;35462;45.048;7.666;2023-03-02T08:25:12;7.70;;;6.65;;
49556;SDS011;35462;45.048;7.666;2023-03-02T08:40:28;10.18;;;6.63;;
49556;SDS011;35462;45.048;7.666;2023-03-02T08:55:44;8.82;;;6.80;;
49556;SDS011;35462;45.048;7.666;2023-03-02T09:11:00;11.07;;;7.40;;
49556;SDS011;35462;45.048;7.666;2023-03-02T09:26:16;9.90;;;7.25;;
49556;SDS011;35462;45.048;7.666;2023-03-02T09:56:57;11.90;;;7.43;;
49556;SDS011;35462;45.048;7.666;2023-03-02T10:27:33;8.60;;;5.53;;
49556;SDS011;35462;45.048;7.666;2023-03-02T10:42:53;6.55;;;5.15;;
49556;SDS011;35462;45.048;7.666;2023-03-02T11:13:38;9.55;;;5.78;;
49556;SDS011;35462;45.048;7.666;2023-03-02T11:28:57;9.30;;;5.43;;
49556;SDS011;35462;45.048;7.666;2023-03-02T11:44:20;7.70;;;4.55;;
49556;SDS011;35462;45.048;7.666;2023-03-02T11:59:38;6.47;;;4.55;;
49556;SDS011;35462;45.048;7.666;2023-03-02T12:14:54;10.35;;;6.50;;
49556;SDS011;35462;45.048;7.666;2023-03-02T13:01:24;3.70;;;2.50;;
49556;SDS011;35462;45.048;7.666;2023-03-02T13:16:51;3.23;;;2.90;;
49556;SDS011;35462;45.048;7.666;2023-03-02T13:32:13;4.90;;;3.55;;
49556;SDS011;35462;45.048;7.666;2023-03-02T13:47:31;2.97;;;2.00;;
49556;SDS011;35462;45.048;7.666;2023-03-02T14:02:47;4.20;;;2.97;;
49556;SDS011;35462;45.048;7.666;2023-03-02T14:18:09;4.97;;;3.45;;
49556;SDS011;35462;45.048;7.666;2023-03-02T14:33:38;5.57;;;3.72;;
49556;SDS011;35462;45.048;7.666;2023-03-02T14:48:53;7.55;;;4.65;;
49556;SDS011;35462;45.048;7.666;2023-03-02T15:04:09;5.78;;;3.55;;
49556;SDS011;35462;45.048;7.666;2023-03-02T15:19:25;5.80;;;3.63;;
49556;SDS011;35462;45.048;7.666;2023-03-02T15:34:41;5.15;;;3.33;;
49556;SDS011;35462;45.048;7.666;2023-03-02T15:49:57;4.03;;;2.55;;
49556;SDS011;35462;45.048;7.666;2023-03-02T16:05:15;4.47;;;2.47;;
49556;SDS011;35462;45.048;7.666;2023-03-02T16:20:32;6.03;;;3.15;;
49556;SDS011;35462;45.048;7.666;2023-03-02T16:35:49;5.35;;;3.30;;
49556;SDS011;35462;45.048;7.666;2023-03-02T16:51:05;4.00;;;3.10;;
49556;SDS011;35462;45.048;7.666;2023-03-02T17:06:22;5.47;;;3.35;;
49556;SDS011;35462;45.048;7.666;2023-03-02T17:21:38;4.50;;;3.42;;
49556;SDS011;35462;45.048;7.666;2023-03-02T17:36:54;7.40;;;3.75;;
49556;SDS011;35462;45.048;7.666;2023-03-02T17:52:11;5.13;;;3.60;;
49556;SDS011;35462;45.048;7.666;2023-03-02T18:07:28;5.97;;;3.20;;
49556;SDS011;35462;45.048;7.666;2023-03-02T18:22:44;6.30;;;4.13;;
49556;SDS011;35462;45.048;7.666;2023-03-02T18:38:00;6.38;;;4.32;;
49556;SDS011;35462;45.048;7.666;2023-03-02T18:53:16;8.20;;;5.25;;
49556;SDS011;35462;45.048;7.666;2023-03-02T19:08:32;8.50;;;5.78;;
49556;SDS011;35462;45.048;7.666;2023-03-02T19:23:49;8.73;;;6.28;;
49556;SDS011;35462;45.048;7.666;2023-03-02T19:39:05;9.45;;;7.00;;
49556;SDS011;35462;45.048;7.666;2023-03-02T19:54:21;12.13;;;7.80;;
49556;SDS011;35462;45.048;7.666;2023-03-02T20:09:37;12.57;;;8.13;;
49556;SDS011;35462;45.048;7.666;2023-03-02T20:24:53;12.60;;;8.00;;
49556;SDS011;35462;45.048;7.666;2023-03-02T20:40:09;11.50;;;8.68;;
49556;SDS011;35462;45.048;7.666;2023-03-02T20:55:28;11.68;;;7.38;;
49556;SDS011;35462;45.048;7.666;2023-03-02T21:10:44;12.13;;;8.33;;
49556;SDS011;35462;45.048;7.666;2023-03-02T21:26:01;12.88;;;9.07;;
49556;SDS011;35462;45.048;7.666;2023-03-02T21:41:26;14.93;;;10.05;;
49556;SDS011;35462;45.048;7.666;2023-03-02T22:12:23;12.02;;;9.00;;
49556;SDS011;35462;45.048;7.666;2023-03-02T22:27:39;14.32;;;8.90;;
49556;SDS011;35462;45.048;7.666;2023-03-02T23:14:02;14.55;;;9.63;;
49556;SDS011;35462;45.048;7.666;2023-03-02T23:29:28;14.48;;;9.90;;
49556;SDS011;35462;45.048;7.666;2023-03-02T23:44:44;15.45;;;11.25;;
49556;SDS011;35462;45.048;7.666;2023-03-02T23:59:59;14.07;;;10.25;;
